sensor_id;sensor_type;location;lat;lon;timestamp;P1;durP1;ratioP1;P2;durP2;ratioP2
11763;SDS011;5939;56.522;14.950;2023-04-25T00:00:26;3.43;;;3.10;;
11763;SDS011;5939;56.522;14.950;2023-04-25T00:02:51;3.73;;;3.00;;
11763;SDS011;5939;56.522;14.950;2023-04-25T00:05:17;3.97;;;3.50;;
11763;SDS011;5939;56.522;14.950;2023-04-25T00:07:44;4.40;;;3.23;;
11763;SDS011;5939;56.522;14.950;2023-04-25T00:10:11;3.50;;;3.20;;
11763;SDS011;5939;56.522;14.950;2023-04-25T00:12:37;3.73;;;3.13;;
11763;SDS011;5939;56.522;14.950;2023-04-25T00:15:04;4.20;;;3.47;;
11763;SDS011;5939;56.522;14.950;2023-04-25T00:17:30;4.53;;;3.67;;
11763;SDS011;5939;56.522;14.950;2023-04-25T00:19:56;4.07;;;3.27;;
11763;SDS011;5939;56.522;14.950;2023-04-25T00:22:23;3.63;;;3.17;;
11763;SDS011;5939;56.522;14.950;2023-04-25T00:24:49;4.57;;;3.87;;
11763;SDS011;5939;56.522;14.950;2023-04-25T00:27:15;4.70;;;3.83;;
11763;SDS011;5939;56.522;14.950;2023-04-25T00:29:41;3.93;;;3.03;;
11763;SDS011;5939;56.522;14.950;2023-04-25T00:32:06;4.90;;;3.80;;
11763;SDS011;5939;56.522;14.950;2023-04-25T00:34:32;5.63;;;4.13;;
11763;SDS011;5939;56.522;14.950;2023-04-25T00:36:57;4.27;;;3.60;;
11763;SDS011;5939;56.522;14.950;2023-04-25T00:39:26;4.87;;;4.33;;
11763;SDS011;5939;56.522;14.950;2023-04-25T00:41:52;5.30;;;4.30;;
11763;SDS011;5939;56.522;14.950;2023-04-25T00:44:19;5.73;;;4.40;;
11763;SDS011;5939;56.522;14.950;2023-04-25T00:46:46;5.83;;;4.40;;
11763;SDS011;5939;56.522;14.950;2023-04-25T00:49:14;5.50;;;4.17;;
11763;SDS011;5939;56.522;14.950;2023-04-25T00:51:41;6.30;;;4.97;;
11763;SDS011;5939;56.522;14.950;2023-04-25T00:54:09;5.10;;;4.53;;
11763;SDS011;5939;56.522;14.950;2023-04-25T00:56:35;6.60;;;5.10;;
11763;SDS011;5939;56.522;14.950;2023-04-25T00:59:01;6.90;;;4.97;;
11763;SDS011;5939;56.522;14.950;2023-04-25T01:01:27;7.43;;;5.27;;
11763;SDS011;5939;56.522;14.950;2023-04-25T01:03:53;7.03;;;5.53;;
11763;SDS011;5939;56.522;14.950;2023-04-25T01:06:19;7.33;;;5.57;;
11763;SDS011;5939;56.522;14.950;2023-04-25T01:08:45;6.97;;;5.20;;
11763;SDS011;5939;56.522;14.950;2023-04-25T01:11:10;6.57;;;5.47;;
11763;SDS011;5939;56.522;14.950;2023-04-25T01:13:36;5.93;;;5.17;;
11763;SDS011;5939;56.522;14.950;2023-04-25T01:16:02;7.30;;;5.60;;
11763;SDS011;5939;56.522;14.950;2023-04-25T01:18:28;8.20;;;5.90;;
11763;SDS011;5939;56.522;14.950;2023-04-25T01:20:53;6.53;;;5.33;;
11763;SDS011;5939;56.522;14.950;2023-04-25T01:23:21;8.13;;;6.10;;
11763;SDS011;5939;56.522;14.950;2023-04-25T01:25:47;8.43;;;6.33;;
11763;SDS011;5939;56.522;14.950;2023-04-25T01:28:14;8.67;;;5.83;;
11763;SDS011;5939;56.522;14.950;2023-04-25T01:30:40;9.33;;;5.90;;
11763;SDS011;5939;56.522;14.950;2023-04-25T01:33:07;8.33;;;6.03;;
11763;SDS011;5939;56.522;14.950;2023-04-25T01:35:33;8.63;;;6.30;;
11763;SDS011;5939;56.522;14.950;2023-04-25T01:37:59;8.67;;;6.50;;
11763;SDS011;5939;56.522;14.950;2023-04-25T01:40:25;12.53;;;6.77;;
11763;SDS011;5939;56.522;14.950;2023-04-25T01:42:52;9.93;;;6.80;;
11763;SDS011;5939;56.522;14.950;2023-04-25T01:45:18;9.60;;;6.33;;
11763;SDS011;5939;56.522;14.950;2023-04-25T01:47:44;10.93;;;7.40;;
11763;SDS011;5939;56.522;14.950;2023-04-25T01:50:14;13.20;;;7.33;;
11763;SDS011;5939;56.522;14.950;2023-04-25T01:52:41;10.03;;;6.97;;
11763;SDS011;5939;56.522;14.950;2023-04-25T01:55:06;11.23;;;7.53;;
11763;SDS011;5939;56.522;14.950;2023-04-25T01:57:32;13.70;;;7.40;;
11763;SDS011;5939;56.522;14.950;2023-04-25T01:59:59;10.17;;;7.43;;
11763;SDS011;5939;56.522;14.950;2023-04-25T02:02:26;11.90;;;7.40;;
11763;SDS011;5939;56.522;14.950;2023-04-25T02:04:52;9.73;;;6.97;;
11763;SDS011;5939;56.522;14.950;2023-04-25T02:07:19;10.80;;;7.47;;
11763;SDS011;5939;56.522;14.950;2023-04-25T02:09:44;11.57;;;7.30;;
11763;SDS011;5939;56.522;14.950;2023-04-25T02:12:10;11.07;;;8.17;;
11763;SDS011;5939;56.522;14.950;2023-04-25T02:14:36;10.17;;;7.00;;
11763;SDS011;5939;56.522;14.950;2023-04-25T02:17:01;12.13;;;7.87;;
11763;SDS011;5939;56.522;14.950;2023-04-25T02:19:27;11.20;;;8.00;;
11763;SDS011;5939;56.522;14.950;2023-04-25T02:21:53;11.90;;;7.73;;
11763;SDS011;5939;56.522;14.950;2023-04-25T02:24:19;13.03;;;7.90;;
11763;SDS011;5939;56.522;14.950;2023-04-25T02:26:45;10.43;;;7.70;;
11763;SDS011;5939;56.522;14.950;2023-04-25T02:29:11;11.77;;;7.83;;
11763;SDS011;5939;56.522;14.950;2023-04-25T02:31:37;11.37;;;7.67;;
11763;SDS011;5939;56.522;14.950;2023-04-25T02:34:03;10.97;;;7.67;;
11763;SDS011;5939;56.522;14.950;2023-04-25T02:36:29;13.50;;;9.20;;
11763;SDS011;5939;56.522;14.950;2023-04-25T02:38:57;13.53;;;8.30;;
11763;SDS011;5939;56.522;14.950;2023-04-25T02:41:22;11.60;;;8.40;;
11763;SDS011;5939;56.522;14.950;2023-04-25T02:43:48;11.60;;;8.20;;
11763;SDS011;5939;56.522;14.950;2023-04-25T02:46:14;12.87;;;8.07;;
11763;SDS011;5939;56.522;14.950;2023-04-25T02:48:39;12.57;;;8.67;;
11763;SDS011;5939;56.522;14.950;2023-04-25T02:51:05;12.10;;;8.90;;
11763;SDS011;5939;56.522;14.950;2023-04-25T02:53:31;12.03;;;9.00;;
11763;SDS011;5939;56.522;14.950;2023-04-25T02:55:56;12.50;;;9.00;;
11763;SDS011;5939;56.522;14.950;2023-04-25T02:58:24;11.83;;;8.30;;
11763;SDS011;5939;56.522;14.950;2023-04-25T03:00:50;12.87;;;9.60;;
11763;SDS011;5939;56.522;14.950;2023-04-25T03:03:15;11.50;;;8.70;;
11763;SDS011;5939;56.522;14.950;2023-04-25T03:05:43;13.57;;;8.97;;
11763;SDS011;5939;56.522;14.950;2023-04-25T03:08:09;12.40;;;8.40;;
11763;SDS011;5939;56.522;14.950;2023-04-25T03:10:35;14.63;;;9.27;;
11763;SDS011;5939;56.522;14.950;2023-04-25T03:13:00;14.80;;;10.23;;
11763;SDS011;5939;56.522;14.950;2023-04-25T03:15:26;14.60;;;9.60;;
11763;SDS011;5939;56.522;14.950;2023-04-25T03:17:51;13.47;;;9.43;;
11763;SDS011;5939;56.522;14.950;2023-04-25T03:20:17;14.57;;;9.87;;
11763;SDS011;5939;56.522;14.950;2023-04-25T03:22:43;12.63;;;9.70;;
11763;SDS011;5939;56.522;14.950;2023-04-25T03:25:09;12.27;;;8.80;;
11763;SDS011;5939;56.522;14.950;2023-04-25T03:27:35;13.87;;;9.03;;
11763;SDS011;5939;56.522;14.950;2023-04-25T03:30:00;14.10;;;9.50;;
11763;SDS011;5939;56.522;14.950;2023-04-25T03:32:26;15.23;;;10.20;;
11763;SDS011;5939;56.522;14.950;2023-04-25T03:34:52;15.30;;;9.80;;
11763;SDS011;5939;56.522;14.950;2023-04-25T03:37:17;12.33;;;8.93;;
11763;SDS011;5939;56.522;14.950;2023-04-25T03:39:43;15.17;;;9.63;;
11763;SDS011;5939;56.522;14.950;2023-04-25T03:42:09;12.50;;;8.50;;
11763;SDS011;5939;56.522;14.950;2023-04-25T03:44:34;14.40;;;9.07;;
11763;SDS011;5939;56.522;14.950;2023-04-25T03:47:00;14.80;;;9.40;;
11763;SDS011;5939;56.522;14.950;2023-04-25T03:49:26;12.20;;;9.00;;
11763;SDS011;5939;56.522;14.950;2023-04-25T03:51:51;11.23;;;7.93;;
11763;SDS011;5939;56.522;14.950;2023-04-25T03:54:17;11.33;;;8.43;;
11763;SDS011;5939;56.522;14.950;2023-04-25T03:56:43;10.83;;;8.07;;
11763;SDS011;5939;56.522;14.950;2023-04-25T03:59:08;11.37;;;8.50;;
11763;SDS011;5939;56.522;14.950;2023-04-25T04:01:34;10.20;;;7.33;;
11763;SDS011;5939;56.522;14.950;2023-04-25T04:04:00;8.90;;;6.83;;
11763;SDS011;5939;56.522;14.950;2023-04-25T04:06:26;8.77;;;6.27;;
11763;SDS011;5939;56.522;14.950;2023-04-25T04:08:51;7.43;;;5.93;;
11763;SDS011;5939;56.522;14.950;2023-04-25T04:11:17;7.17;;;5.93;;
11763;SDS011;5939;56.522;14.950;2023-04-25T04:13:43;7.33;;;5.60;;
11763;SDS011;5939;56.522;14.950;2023-04-25T04:16:08;6.50;;;5.13;;
11763;SDS011;5939;56.522;14.950;2023-04-25T04:18:34;5.67;;;4.30;;
11763;SDS011;5939;56.522;14.950;2023-04-25T04:21:00;6.20;;;5.07;;
11763;SDS011;5939;56.522;14.950;2023-04-25T04:23:26;6.40;;;5.07;;
11763;SDS011;5939;56.522;14.950;2023-04-25T04:25:53;6.27;;;4.63;;
11763;SDS011;5939;56.522;14.950;2023-04-25T04:28:19;4.80;;;3.83;;
11763;SDS011;5939;56.522;14.950;2023-04-25T04:30:45;5.50;;;4.30;;
11763;SDS011;5939;56.522;14.950;2023-04-25T04:33:11;4.10;;;3.70;;
11763;SDS011;5939;56.522;14.950;2023-04-25T04:35:37;5.30;;;4.13;;
11763;SDS011;5939;56.522;14.950;2023-04-25T04:38:03;5.03;;;4.23;;
11763;SDS011;5939;56.522;14.950;2023-04-25T04:40:28;5.23;;;3.40;;
11763;SDS011;5939;56.522;14.950;2023-04-25T04:42:56;4.60;;;3.83;;
11763;SDS011;5939;56.522;14.950;2023-04-25T04:45:22;4.57;;;3.40;;
11763;SDS011;5939;56.522;14.950;2023-04-25T04:47:48;3.90;;;3.50;;
11763;SDS011;5939;56.522;14.950;2023-04-25T04:50:15;4.80;;;3.80;;
11763;SDS011;5939;56.522;14.950;2023-04-25T04:52:41;4.67;;;3.13;;
11763;SDS011;5939;56.522;14.950;2023-04-25T04:55:07;3.67;;;3.33;;
11763;SDS011;5939;56.522;14.950;2023-04-25T04:57:33;4.33;;;3.30;;
11763;SDS011;5939;56.522;14.950;2023-04-25T04:59:59;4.73;;;3.43;;
11763;SDS011;5939;56.522;14.950;2023-04-25T05:02:26;3.67;;;3.27;;
11763;SDS011;5939;56.522;14.950;2023-04-25T05:04:52;4.20;;;3.40;;
11763;SDS011;5939;56.522;14.950;2023-04-25T05:07:18;3.90;;;3.07;;
11763;SDS011;5939;56.522;14.950;2023-04-25T05:09:44;4.90;;;3.00;;
11763;SDS011;5939;56.522;14.950;2023-04-25T05:12:10;4.03;;;2.90;;
11763;SDS011;5939;56.522;14.950;2023-04-25T05:14:35;3.93;;;3.20;;
11763;SDS011;5939;56.522;14.950;2023-04-25T05:17:01;3.20;;;2.90;;
11763;SDS011;5939;56.522;14.950;2023-04-25T05:19:29;3.50;;;2.97;;
11763;SDS011;5939;56.522;14.950;2023-04-25T05:21:55;3.17;;;2.87;;
11763;SDS011;5939;56.522;14.950;2023-04-25T05:24:21;3.93;;;2.77;;
11763;SDS011;5939;56.522;14.950;2023-04-25T05:26:46;4.13;;;2.87;;
11763;SDS011;5939;56.522;14.950;2023-04-25T05:29:12;5.10;;;2.73;;
11763;SDS011;5939;56.522;14.950;2023-04-25T05:31:38;4.10;;;2.93;;
11763;SDS011;5939;56.522;14.950;2023-04-25T05:34:03;4.97;;;3.43;;
11763;SDS011;5939;56.522;14.950;2023-04-25T05:36:29;4.20;;;2.90;;
11763;SDS011;5939;56.522;14.950;2023-04-25T05:38:55;3.30;;;2.70;;
11763;SDS011;5939;56.522;14.950;2023-04-25T05:41:21;3.60;;;2.93;;
11763;SDS011;5939;56.522;14.950;2023-04-25T05:43:47;4.23;;;3.07;;
11763;SDS011;5939;56.522;14.950;2023-04-25T05:46:14;4.00;;;2.73;;
11763;SDS011;5939;56.522;14.950;2023-04-25T05:48:42;3.03;;;2.47;;
11763;SDS011;5939;56.522;14.950;2023-04-25T05:51:08;4.40;;;2.93;;
11763;SDS011;5939;56.522;14.950;2023-04-25T05:53:34;3.37;;;2.77;;
11763;SDS011;5939;56.522;14.950;2023-04-25T05:56:00;4.17;;;2.57;;
11763;SDS011;5939;56.522;14.950;2023-04-25T05:58:26;4.10;;;2.37;;
11763;SDS011;5939;56.522;14.950;2023-04-25T06:00:52;3.00;;;2.30;;
11763;SDS011;5939;56.522;14.950;2023-04-25T06:03:17;4.00;;;2.70;;
11763;SDS011;5939;56.522;14.950;2023-04-25T06:05:43;2.67;;;2.43;;
11763;SDS011;5939;56.522;14.950;2023-04-25T06:08:09;4.87;;;2.60;;
11763;SDS011;5939;56.522;14.950;2023-04-25T06:10:38;3.03;;;2.20;;
11763;SDS011;5939;56.522;14.950;2023-04-25T06:13:04;2.63;;;2.20;;
11763;SDS011;5939;56.522;14.950;2023-04-25T06:15:30;2.90;;;2.03;;
11763;SDS011;5939;56.522;14.950;2023-04-25T06:17:58;2.37;;;1.80;;
11763;SDS011;5939;56.522;14.950;2023-04-25T06:20:24;2.57;;;1.90;;
11763;SDS011;5939;56.522;14.950;2023-04-25T06:22:50;3.17;;;1.97;;
11763;SDS011;5939;56.522;14.950;2023-04-25T06:25:16;2.93;;;1.87;;
11763;SDS011;5939;56.522;14.950;2023-04-25T06:27:42;1.87;;;1.73;;
11763;SDS011;5939;56.522;14.950;2023-04-25T06:30:08;2.00;;;1.70;;
11763;SDS011;5939;56.522;14.950;2023-04-25T06:32:34;1.90;;;1.60;;
11763;SDS011;5939;56.522;14.950;2023-04-25T06:35:00;2.00;;;1.70;;
11763;SDS011;5939;56.522;14.950;2023-04-25T06:37:26;2.47;;;1.90;;
11763;SDS011;5939;56.522;14.950;2023-04-25T06:39:51;3.13;;;2.00;;
11763;SDS011;5939;56.522;14.950;2023-04-25T06:42:17;1.50;;;1.40;;
11763;SDS011;5939;56.522;14.950;2023-04-25T06:44:43;2.17;;;1.50;;
11763;SDS011;5939;56.522;14.950;2023-04-25T06:47:08;1.70;;;1.60;;
11763;SDS011;5939;56.522;14.950;2023-04-25T06:49:34;2.57;;;1.33;;
11763;SDS011;5939;56.522;14.950;2023-04-25T06:52:00;3.40;;;1.30;;
11763;SDS011;5939;56.522;14.950;2023-04-25T06:54:26;1.30;;;1.20;;
11763;SDS011;5939;56.522;14.950;2023-04-25T06:56:54;2.50;;;1.50;;
11763;SDS011;5939;56.522;14.950;2023-04-25T06:59:20;1.30;;;1.20;;
11763;SDS011;5939;56.522;14.950;2023-04-25T07:01:46;1.43;;;1.23;;
11763;SDS011;5939;56.522;14.950;2023-04-25T07:04:12;1.10;;;1.00;;
11763;SDS011;5939;56.522;14.950;2023-04-25T07:06:38;1.67;;;1.10;;
11763;SDS011;5939;56.522;14.950;2023-04-25T07:09:07;1.50;;;1.13;;
11763;SDS011;5939;56.522;14.950;2023-04-25T07:11:35;1.30;;;1.13;;
11763;SDS011;5939;56.522;14.950;2023-04-25T07:14:01;1.93;;;1.20;;
11763;SDS011;5939;56.522;14.950;2023-04-25T07:16:27;1.20;;;1.10;;
11763;SDS011;5939;56.522;14.950;2023-04-25T07:18:52;1.37;;;1.10;;
11763;SDS011;5939;56.522;14.950;2023-04-25T07:21:18;1.03;;;1.00;;
11763;SDS011;5939;56.522;14.950;2023-04-25T07:23:44;2.10;;;1.10;;
11763;SDS011;5939;56.522;14.950;2023-04-25T07:26:10;1.53;;;1.07;;
11763;SDS011;5939;56.522;14.950;2023-04-25T07:28:35;2.20;;;1.00;;
11763;SDS011;5939;56.522;14.950;2023-04-25T07:31:01;1.10;;;1.00;;
11763;SDS011;5939;56.522;14.950;2023-04-25T07:33:27;1.17;;;1.00;;
11763;SDS011;5939;56.522;14.950;2023-04-25T07:35:53;1.17;;;1.07;;
11763;SDS011;5939;56.522;14.950;2023-04-25T07:38:20;1.13;;;1.03;;
11763;SDS011;5939;56.522;14.950;2023-04-25T07:40:47;1.10;;;1.07;;
11763;SDS011;5939;56.522;14.950;2023-04-25T07:43:13;1.50;;;1.10;;
11763;SDS011;5939;56.522;14.950;2023-04-25T07:45:45;1.30;;;1.20;;
11763;SDS011;5939;56.522;14.950;2023-04-25T07:48:11;1.10;;;1.00;;
11763;SDS011;5939;56.522;14.950;2023-04-25T07:50:41;1.20;;;1.10;;
11763;SDS011;5939;56.522;14.950;2023-04-25T07:53:07;0.93;;;0.80;;
11763;SDS011;5939;56.522;14.950;2023-04-25T07:55:33;1.77;;;1.20;;
11763;SDS011;5939;56.522;14.950;2023-04-25T07:57:59;1.17;;;1.07;;
11763;SDS011;5939;56.522;14.950;2023-04-25T08:00:25;1.20;;;1.10;;
11763;SDS011;5939;56.522;14.950;2023-04-25T08:02:50;0.93;;;0.90;;
11763;SDS011;5939;56.522;14.950;2023-04-25T08:05:16;2.27;;;1.20;;
11763;SDS011;5939;56.522;14.950;2023-04-25T08:07:42;0.87;;;0.80;;
11763;SDS011;5939;56.522;14.950;2023-04-25T08:10:08;1.00;;;0.90;;
11763;SDS011;5939;56.522;14.950;2023-04-25T08:12:34;0.80;;;0.80;;
11763;SDS011;5939;56.522;14.950;2023-04-25T08:15:00;0.93;;;0.87;;
11763;SDS011;5939;56.522;14.950;2023-04-25T08:17:26;1.37;;;1.00;;
11763;SDS011;5939;56.522;14.950;2023-04-25T08:19:52;1.17;;;0.80;;
11763;SDS011;5939;56.522;14.950;2023-04-25T08:22:18;1.13;;;0.90;;
11763;SDS011;5939;56.522;14.950;2023-04-25T08:24:43;1.30;;;0.90;;
11763;SDS011;5939;56.522;14.950;2023-04-25T08:27:09;0.70;;;0.70;;
11763;SDS011;5939;56.522;14.950;2023-04-25T08:29:35;0.90;;;0.80;;
11763;SDS011;5939;56.522;14.950;2023-04-25T08:32:00;0.90;;;0.80;;
11763;SDS011;5939;56.522;14.950;2023-04-25T08:34:26;0.70;;;0.70;;
11763;SDS011;5939;56.522;14.950;2023-04-25T08:36:52;1.27;;;0.80;;
11763;SDS011;5939;56.522;14.950;2023-04-25T08:39:17;1.23;;;0.80;;
11763;SDS011;5939;56.522;14.950;2023-04-25T08:41:43;0.83;;;0.80;;
11763;SDS011;5939;56.522;14.950;2023-04-25T08:44:10;0.93;;;0.70;;
11763;SDS011;5939;56.522;14.950;2023-04-25T08:46:40;1.20;;;0.80;;
11763;SDS011;5939;56.522;14.950;2023-04-25T08:49:06;1.03;;;0.93;;
11763;SDS011;5939;56.522;14.950;2023-04-25T08:51:38;0.60;;;0.60;;
11763;SDS011;5939;56.522;14.950;2023-04-25T08:54:15;0.80;;;0.80;;
11763;SDS011;5939;56.522;14.950;2023-04-25T08:56:43;0.93;;;0.80;;
11763;SDS011;5939;56.522;14.950;2023-04-25T08:59:11;1.20;;;1.03;;
11763;SDS011;5939;56.522;14.950;2023-04-25T09:01:37;0.90;;;0.70;;
11763;SDS011;5939;56.522;14.950;2023-04-25T09:04:02;0.77;;;0.77;;
11763;SDS011;5939;56.522;14.950;2023-04-25T09:06:28;0.80;;;0.80;;
11763;SDS011;5939;56.522;14.950;2023-04-25T09:09:01;2.27;;;0.80;;
11763;SDS011;5939;56.522;14.950;2023-04-25T09:11:29;0.80;;;0.80;;
11763;SDS011;5939;56.522;14.950;2023-04-25T09:14:14;1.13;;;0.77;;
11763;SDS011;5939;56.522;14.950;2023-04-25T09:19:25;0.93;;;0.93;;
11763;SDS011;5939;56.522;14.950;2023-04-25T09:21:53;1.37;;;0.90;;
11763;SDS011;5939;56.522;14.950;2023-04-25T09:27:05;1.40;;;0.93;;
11763;SDS011;5939;56.522;14.950;2023-04-25T09:29:32;0.80;;;0.80;;
11763;SDS011;5939;56.522;14.950;2023-04-25T09:32:13;0.90;;;0.90;;
11763;SDS011;5939;56.522;14.950;2023-04-25T09:37:28;1.67;;;0.90;;
11763;SDS011;5939;56.522;14.950;2023-04-25T09:39:58;1.00;;;0.90;;
11763;SDS011;5939;56.522;14.950;2023-04-25T09:42:28;0.90;;;0.90;;
11763;SDS011;5939;56.522;14.950;2023-04-25T09:44:56;0.87;;;0.63;;
11763;SDS011;5939;56.522;14.950;2023-04-25T09:47:24;1.13;;;1.00;;
11763;SDS011;5939;56.522;14.950;2023-04-25T09:49:50;0.87;;;0.87;;
11763;SDS011;5939;56.522;14.950;2023-04-25T09:52:18;0.93;;;0.80;;
11763;SDS011;5939;56.522;14.950;2023-04-25T09:54:53;1.10;;;1.00;;
11763;SDS011;5939;56.522;14.950;2023-04-25T09:57:19;0.93;;;0.80;;
11763;SDS011;5939;56.522;14.950;2023-04-25T09:59:47;1.80;;;1.00;;
11763;SDS011;5939;56.522;14.950;2023-04-25T10:02:17;1.07;;;0.97;;
11763;SDS011;5939;56.522;14.950;2023-04-25T10:04:47;0.87;;;0.87;;
11763;SDS011;5939;56.522;14.950;2023-04-25T10:07:14;1.00;;;0.90;;
11763;SDS011;5939;56.522;14.950;2023-04-25T10:09:40;1.10;;;1.00;;
11763;SDS011;5939;56.522;14.950;2023-04-25T10:12:07;1.63;;;1.00;;
11763;SDS011;5939;56.522;14.950;2023-04-25T10:14:33;0.97;;;0.80;;
11763;SDS011;5939;56.522;14.950;2023-04-25T10:17:00;0.80;;;0.80;;
11763;SDS011;5939;56.522;14.950;2023-04-25T10:19:26;1.03;;;0.90;;
11763;SDS011;5939;56.522;14.950;2023-04-25T10:21:55;1.43;;;1.00;;
11763;SDS011;5939;56.522;14.950;2023-04-25T10:24:22;1.10;;;1.00;;
11763;SDS011;5939;56.522;14.950;2023-04-25T10:26:49;0.90;;;0.90;;
11763;SDS011;5939;56.522;14.950;2023-04-25T10:29:25;1.13;;;1.03;;
11763;SDS011;5939;56.522;14.950;2023-04-25T10:31:51;1.17;;;1.07;;
11763;SDS011;5939;56.522;14.950;2023-04-25T10:34:17;2.03;;;1.20;;
11763;SDS011;5939;56.522;14.950;2023-04-25T10:36:48;2.47;;;1.10;;
11763;SDS011;5939;56.522;14.950;2023-04-25T10:39:21;1.33;;;1.10;;
11763;SDS011;5939;56.522;14.950;2023-04-25T10:41:52;2.33;;;1.30;;
11763;SDS011;5939;56.522;14.950;2023-04-25T10:44:20;1.53;;;1.20;;
11763;SDS011;5939;56.522;14.950;2023-04-25T10:46:46;2.20;;;1.10;;
11763;SDS011;5939;56.522;14.950;2023-04-25T10:49:28;2.50;;;1.13;;
11763;SDS011;5939;56.522;14.950;2023-04-25T10:54:51;2.37;;;1.30;;
11763;SDS011;5939;56.522;14.950;2023-04-25T10:57:39;1.70;;;1.10;;
11763;SDS011;5939;56.522;14.950;2023-04-25T11:00:19;2.27;;;1.37;;
11763;SDS011;5939;56.522;14.950;2023-04-25T11:02:57;2.53;;;1.13;;
11763;SDS011;5939;56.522;14.950;2023-04-25T11:07:53;1.50;;;1.40;;
11763;SDS011;5939;56.522;14.950;2023-04-25T11:10:24;1.20;;;1.10;;
11763;SDS011;5939;56.522;14.950;2023-04-25T11:12:51;1.97;;;1.30;;
11763;SDS011;5939;56.522;14.950;2023-04-25T11:15:16;2.60;;;1.33;;
11763;SDS011;5939;56.522;14.950;2023-04-25T11:17:42;1.57;;;1.20;;
11763;SDS011;5939;56.522;14.950;2023-04-25T11:20:11;2.17;;;1.30;;
11763;SDS011;5939;56.522;14.950;2023-04-25T11:22:39;1.40;;;1.30;;
11763;SDS011;5939;56.522;14.950;2023-04-25T11:25:08;1.30;;;1.20;;
11763;SDS011;5939;56.522;14.950;2023-04-25T11:27:39;1.93;;;1.40;;
11763;SDS011;5939;56.522;14.950;2023-04-25T11:30:15;1.60;;;1.30;;
11763;SDS011;5939;56.522;14.950;2023-04-25T11:32:42;1.67;;;1.20;;
11763;SDS011;5939;56.522;14.950;2023-04-25T11:35:08;2.13;;;1.40;;
11763;SDS011;5939;56.522;14.950;2023-04-25T11:37:34;2.90;;;1.60;;
11763;SDS011;5939;56.522;14.950;2023-04-25T11:40:01;2.93;;;1.83;;
11763;SDS011;5939;56.522;14.950;2023-04-25T11:42:28;2.07;;;1.60;;
11763;SDS011;5939;56.522;14.950;2023-04-25T11:44:55;1.50;;;1.33;;
11763;SDS011;5939;56.522;14.950;2023-04-25T11:47:26;1.70;;;1.40;;
11763;SDS011;5939;56.522;14.950;2023-04-25T11:49:53;2.47;;;1.70;;
11763;SDS011;5939;56.522;14.950;2023-04-25T11:52:19;1.57;;;1.47;;
11763;SDS011;5939;56.522;14.950;2023-04-25T11:54:45;3.03;;;1.30;;
11763;SDS011;5939;56.522;14.950;2023-04-25T11:57:11;1.90;;;1.73;;
11763;SDS011;5939;56.522;14.950;2023-04-25T11:59:37;2.70;;;1.40;;
11763;SDS011;5939;56.522;14.950;2023-04-25T12:02:02;1.63;;;1.30;;
11763;SDS011;5939;56.522;14.950;2023-04-25T12:04:29;1.57;;;1.47;;
11763;SDS011;5939;56.522;14.950;2023-04-25T12:06:56;1.90;;;1.40;;
11763;SDS011;5939;56.522;14.950;2023-04-25T12:09:28;2.60;;;1.43;;
11763;SDS011;5939;56.522;14.950;2023-04-25T12:11:56;2.30;;;1.30;;
11763;SDS011;5939;56.522;14.950;2023-04-25T12:14:25;2.57;;;1.43;;
11763;SDS011;5939;56.522;14.950;2023-04-25T12:16:56;1.83;;;1.27;;
11763;SDS011;5939;56.522;14.950;2023-04-25T12:19:27;1.57;;;1.40;;
11763;SDS011;5939;56.522;14.950;2023-04-25T12:22:01;2.60;;;1.30;;
11763;SDS011;5939;56.522;14.950;2023-04-25T12:24:32;2.50;;;1.30;;
11763;SDS011;5939;56.522;14.950;2023-04-25T12:29:26;2.17;;;1.10;;
11763;SDS011;5939;56.522;14.950;2023-04-25T12:31:54;1.60;;;1.30;;
11763;SDS011;5939;56.522;14.950;2023-04-25T12:34:20;2.67;;;1.40;;
11763;SDS011;5939;56.522;14.950;2023-04-25T12:36:46;2.23;;;1.30;;
11763;SDS011;5939;56.522;14.950;2023-04-25T12:39:16;2.50;;;1.40;;
11763;SDS011;5939;56.522;14.950;2023-04-25T12:41:49;2.27;;;1.20;;
11763;SDS011;5939;56.522;14.950;2023-04-25T12:44:17;2.33;;;1.27;;
11763;SDS011;5939;56.522;14.950;2023-04-25T12:46:43;2.03;;;1.20;;
11763;SDS011;5939;56.522;14.950;2023-04-25T12:49:08;2.50;;;1.10;;
11763;SDS011;5939;56.522;14.950;2023-04-25T12:51:34;1.60;;;1.20;;
11763;SDS011;5939;56.522;14.950;2023-04-25T12:54:01;1.23;;;0.97;;
11763;SDS011;5939;56.522;14.950;2023-04-25T12:56:27;2.83;;;1.10;;
11763;SDS011;5939;56.522;14.950;2023-04-25T12:58:53;0.90;;;0.90;;
11763;SDS011;5939;56.522;14.950;2023-04-25T13:01:23;1.87;;;1.20;;
11763;SDS011;5939;56.522;14.950;2023-04-25T13:03:49;1.10;;;1.00;;
11763;SDS011;5939;56.522;14.950;2023-04-25T13:06:15;2.10;;;1.03;;
11763;SDS011;5939;56.522;14.950;2023-04-25T13:08:43;1.47;;;1.03;;
11763;SDS011;5939;56.522;14.950;2023-04-25T13:11:08;1.30;;;1.20;;
11763;SDS011;5939;56.522;14.950;2023-04-25T13:13:34;1.30;;;0.97;;
11763;SDS011;5939;56.522;14.950;2023-04-25T13:16:01;1.20;;;0.93;;
11763;SDS011;5939;56.522;14.950;2023-04-25T13:18:30;1.20;;;1.00;;
11763;SDS011;5939;56.522;14.950;2023-04-25T13:20:56;1.07;;;0.90;;
11763;SDS011;5939;56.522;14.950;2023-04-25T13:23:24;0.77;;;0.77;;
11763;SDS011;5939;56.522;14.950;2023-04-25T13:25:51;0.80;;;0.80;;
11763;SDS011;5939;56.522;14.950;2023-04-25T13:28:16;1.10;;;0.90;;
11763;SDS011;5939;56.522;14.950;2023-04-25T13:30:42;1.27;;;0.80;;
11763;SDS011;5939;56.522;14.950;2023-04-25T13:33:08;1.00;;;0.83;;
11763;SDS011;5939;56.522;14.950;2023-04-25T13:35:35;0.80;;;0.80;;
11763;SDS011;5939;56.522;14.950;2023-04-25T13:38:01;0.70;;;0.70;;
11763;SDS011;5939;56.522;14.950;2023-04-25T13:40:27;0.73;;;0.73;;
11763;SDS011;5939;56.522;14.950;2023-04-25T13:42:53;0.80;;;0.80;;
11763;SDS011;5939;56.522;14.950;2023-04-25T13:45:20;0.77;;;0.77;;
11763;SDS011;5939;56.522;14.950;2023-04-25T13:47:46;0.60;;;0.60;;
11763;SDS011;5939;56.522;14.950;2023-04-25T13:50:11;0.70;;;0.70;;
11763;SDS011;5939;56.522;14.950;2023-04-25T13:52:38;1.00;;;0.70;;
11763;SDS011;5939;56.522;14.950;2023-04-25T13:55:04;0.70;;;0.70;;
11763;SDS011;5939;56.522;14.950;2023-04-25T13:57:32;0.70;;;0.70;;
11763;SDS011;5939;56.522;14.950;2023-04-25T13:59:58;0.60;;;0.60;;
11763;SDS011;5939;56.522;14.950;2023-04-25T14:02:24;0.63;;;0.63;;
11763;SDS011;5939;56.522;14.950;2023-04-25T14:04:51;0.50;;;0.50;;
11763;SDS011;5939;56.522;14.950;2023-04-25T14:07:16;0.60;;;0.60;;
11763;SDS011;5939;56.522;14.950;2023-04-25T14:09:44;1.07;;;0.80;;
11763;SDS011;5939;56.522;14.950;2023-04-25T14:12:10;0.60;;;0.60;;
11763;SDS011;5939;56.522;14.950;2023-04-25T14:14:36;0.60;;;0.60;;
11763;SDS011;5939;56.522;14.950;2023-04-25T14:17:02;0.60;;;0.60;;
11763;SDS011;5939;56.522;14.950;2023-04-25T14:19:28;0.60;;;0.60;;
11763;SDS011;5939;56.522;14.950;2023-04-25T14:21:54;1.03;;;0.60;;
11763;SDS011;5939;56.522;14.950;2023-04-25T14:24:20;0.60;;;0.60;;
11763;SDS011;5939;56.522;14.950;2023-04-25T14:26:46;0.60;;;0.60;;
11763;SDS011;5939;56.522;14.950;2023-04-25T14:29:11;1.37;;;0.60;;
11763;SDS011;5939;56.522;14.950;2023-04-25T14:31:38;0.70;;;0.70;;
11763;SDS011;5939;56.522;14.950;2023-04-25T14:34:04;1.03;;;0.63;;
11763;SDS011;5939;56.522;14.950;2023-04-25T14:36:31;1.00;;;0.70;;
11763;SDS011;5939;56.522;14.950;2023-04-25T14:38:57;1.90;;;0.63;;
11763;SDS011;5939;56.522;14.950;2023-04-25T14:41:24;0.70;;;0.70;;
11763;SDS011;5939;56.522;14.950;2023-04-25T14:43:50;0.70;;;0.70;;
11763;SDS011;5939;56.522;14.950;2023-04-25T14:46:16;1.27;;;0.70;;
11763;SDS011;5939;56.522;14.950;2023-04-25T14:48:41;0.70;;;0.70;;
11763;SDS011;5939;56.522;14.950;2023-04-25T14:51:07;0.60;;;0.60;;
11763;SDS011;5939;56.522;14.950;2023-04-25T14:53:33;0.53;;;0.53;;
11763;SDS011;5939;56.522;14.950;2023-04-25T14:55:59;0.80;;;0.80;;
11763;SDS011;5939;56.522;14.950;2023-04-25T14:58:24;0.70;;;0.70;;